Time;durP1;ratioP1;P1;durP2;ratioP2;P2;SDS_P1;SDS_P2;PMS_P1;PMS_P2;Temp;Humidity;BMP_temperature;BMP_pressure;BME280_temperature;BME280_humidity;BME280_pressure;Samples;Min_cycle;Max_cycle;Signal;HPM_P1;HPM_P2
2022/08/24 00:02:13;;;;;;;;;3.00;3.00;;;;;-147.47;100.00;64613.53;5017089;28;46045;-84
2022/08/24 00:04:38;;;;;;;;;5.00;4.00;;;;;-147.47;100.00;64613.53;5040983;28;47388;-84
2022/08/24 00:07:05;;;;;;;;;4.50;3.50;;;;;-147.47;100.00;64613.53;5038012;28;45490;-83
2022/08/24 00:09:31;;;;;;;;;5.33;4.00;;;;;-147.47;100.00;64613.53;5032036;28;45641;-83
2022/08/24 00:11:58;;;;;;;;;4.50;3.00;;;;;-147.47;100.00;64613.53;5034674;28;45835;-83
2022/08/24 00:14:24;;;;;;;;;4.00;4.00;;;;;-147.47;100.00;64613.53;5036946;28;45971;-82
2022/08/24 00:16:49;;;;;;;;;4.00;4.00;;;;;-147.47;100.00;64613.53;5037088;28;45515;-82
2022/08/24 00:19:15;;;;;;;;;4.00;2.75;;;;;-147.47;100.00;64613.53;5036657;28;45487;-74
2022/08/24 00:21:41;;;;;;;;;4.75;4.75;;;;;-147.47;100.00;64613.53;5032888;28;45879;-73
2022/08/24 00:24:06;;;;;;;;;4.00;4.00;;;;;-147.47;100.00;64613.53;5033403;28;47439;-82
2022/08/24 00:26:34;;;;;;;;;4.00;4.00;;;;;-147.47;100.00;64613.53;5035190;28;45340;-80
2022/08/24 00:29:00;;;;;;;;;3.25;3.25;;;;;-147.47;100.00;64613.53;5011972;28;45710;-82
2022/08/24 00:31:26;;;;;;;;;4.00;4.00;;;;;-147.47;100.00;64613.53;5027745;28;45307;-82
2022/08/24 00:33:51;;;;;;;;;5.00;4.00;;;;;-147.47;100.00;64613.53;5028358;28;46208;-84
2022/08/24 00:36:20;;;;;;;;;4.00;4.00;;;;;-147.47;100.00;64613.53;5021734;28;45742;-72
2022/08/24 00:38:45;;;;;;;;;4.33;3.33;;;;;-147.47;100.00;64613.53;5015232;28;45422;-80
2022/08/24 00:41:12;;;;;;;;;4.75;4.75;;;;;-147.47;100.00;64613.53;5021252;28;45637;-80
2022/08/24 00:43:38;;;;;;;;;4.25;4.25;;;;;-147.47;100.00;64613.53;5033793;28;46605;-82
2022/08/24 00:46:12;;;;;;;;;3.00;3.00;;;;;-147.47;100.00;64613.53;5023444;28;45665;-71
2022/08/24 00:48:42;;;;;;;;;4.00;4.00;;;;;-147.47;100.00;64613.53;5032420;28;45844;-72
2022/08/24 00:51:16;;;;;;;;;3.25;2.50;;;;;-147.47;100.00;64613.53;5003543;28;46180;-73
2022/08/24 00:53:50;;;;;;;;;5.00;3.33;;;;;-147.47;100.00;64613.53;5023850;28;45915;-71
2022/08/24 00:56:24;;;;;;;;;4.00;3.00;;;;;-147.47;100.00;64613.53;5020848;28;45835;-72
2022/08/24 00:58:56;;;;;;;;;3.67;3.67;;;;;-147.47;100.00;64613.53;5028035;28;45553;-72
2022/08/24 01:01:23;;;;;;;;;4.00;4.00;;;;;-147.47;100.00;64613.53;5019585;28;46215;-73
2022/08/24 01:03:48;;;;;;;;;4.00;3.67;;;;;-147.47;100.00;64613.53;5028227;28;47133;-74
2022/08/24 01:06:14;;;;;;;;;5.00;4.67;;;;;-147.47;100.00;64613.53;5031214;28;45557;-82
2022/08/24 01:08:40;;;;;;;;;9.00;6.33;;;;;-147.47;100.00;64613.53;5012115;28;45754;-81
2022/08/24 01:11:13;;;;;;;;;4.00;4.00;;;;;-147.47;100.00;64613.53;5025215;28;45525;-81
2022/08/24 01:13:42;;;;;;;;;4.67;4.67;;;;;-147.47;100.00;64613.53;5011498;28;45388;-80
2022/08/24 01:16:08;;;;;;;;;3.67;3.67;;;;;-147.47;100.00;64613.53;5015410;28;45380;-83
2022/08/24 01:18:50;;;;;;;;;5.00;4.00;;;;;-147.47;100.00;64613.53;5030796;28;45463;-74
2022/08/24 01:21:38;;;;;;;;;3.33;3.33;;;;;-147.47;100.00;64613.53;5031618;28;45686;-72
2022/08/24 01:24:10;;;;;;;;;7.00;4.33;;;;;-147.47;100.00;64613.53;5031639;28;45467;-74
2022/08/24 01:26:41;;;;;;;;;3.67;3.00;;;;;-147.47;100.00;64613.53;5030220;28;45446;-71
2022/08/24 01:29:12;;;;;;;;;5.00;4.00;;;;;-147.47;100.00;64613.53;5030728;28;45548;-80
2022/08/24 01:31:38;;;;;;;;;4.75;3.25;;;;;-147.47;100.00;64613.53;5034027;28;46406;-82
2022/08/24 01:34:04;;;;;;;;;4.33;3.33;;;;;-147.47;100.00;64613.53;5013692;28;46341;-81
2022/08/24 01:36:37;;;;;;;;;7.33;5.00;;;;;-147.47;100.00;64613.53;5031563;28;45453;-73
2022/08/24 01:39:12;;;;;;;;;6.00;4.00;;;;;-147.47;100.00;64613.53;5021740;28;45755;-79
2022/08/24 01:41:37;;;;;;;;;3.25;3.25;;;;;-147.47;100.00;64613.53;5026938;28;45825;-71
2022/08/24 01:44:04;;;;;;;;;4.33;4.33;;;;;-147.47;100.00;64613.53;5008457;28;47195;-79
2022/08/24 01:46:46;;;;;;;;;5.50;4.00;;;;;;;;5100459;27;45718;-70
2022/08/24 01:49:12;;;;;;;;;3.00;2.00;;;;;;;;5079195;27;45486;-71
2022/08/24 01:51:37;;;;;;;;;6.00;6.00;;;;;;;;5075809;27;45470;-69
2022/08/24 01:54:04;;;;;;;;;4.33;4.00;;;;;;;;5074615;27;45970;-70
2022/08/24 01:56:30;;;;;;;;;3.75;2.50;;;;;;;;5077096;27;46284;-71
2022/08/24 01:58:55;;;;;;;;;5.00;3.67;;;;;;;;5082351;27;45431;-69
2022/08/24 02:01:20;;;;;;;;;4.00;4.00;;;;;;;;5085718;27;45631;-71
2022/08/24 02:03:46;;;;;;;;;4.33;4.33;;;;;;;;5079957;27;45336;-71
2022/08/24 02:06:11;;;;;;;;;4.67;4.67;;;;;;;;5085632;27;46159;-71
2022/08/24 02:08:36;;;;;;;;;4.33;3.33;;;;;;;;5090904;27;45316;-70
2022/08/24 02:11:04;;;;;;;;;4.75;4.25;;;;;;;;5080396;27;45275;-71
2022/08/24 02:13:30;;;;;;;;;5.67;3.67;;;;;;;;5083279;27;45493;-69
2022/08/24 02:15:56;;;;;;;;;4.33;4.00;;;;;;;;5105064;27;46773;-72
2022/08/24 02:18:21;;;;;;;;;3.33;3.33;;;;;;;;5073557;27;45365;-70
2022/08/24 02:20:47;;;;;;;;;5.00;5.00;;;;;;;;5114876;27;45601;-70
2022/08/24 02:23:12;;;;;;;;;3.25;3.25;;;;;;;;5076768;27;45425;-71
2022/08/24 02:25:37;;;;;;;;;2.00;2.00;;;;;;;;5082655;27;46247;-69
2022/08/24 02:28:03;;;;;;;;;5.00;4.00;;;;;;;;5086427;27;45546;-71
2022/08/24 02:30:29;;;;;;;;;3.67;3.67;;;;;;;;5090230;27;45397;-69
2022/08/24 02:32:54;;;;;;;;;3.00;2.00;;;;;;;;5086207;27;45758;-71
2022/08/24 02:35:21;;;;;;;;;4.00;4.00;;;;;;;;5085175;27;46034;-68
2022/08/24 02:37:46;;;;;;;;;5.33;4.00;;;;;;;;5083527;27;45589;-69
2022/08/24 02:40:12;;;;;;;;;5.00;4.33;;;;;;;;5088342;27;45414;-70
2022/08/24 02:42:37;;;;;;;;;4.00;4.00;;;;;;;;5078546;27;45582;-70
2022/08/24 02:45:03;;;;;;;;;6.00;4.00;;;;;;;;5089876;27;45300;-71
2022/08/24 02:47:29;;;;;;;;;6.00;4.00;;;;;;;;5090222;27;45319;-69
2022/08/24 02:49:54;;;;;;;;;6.33;5.33;;;;;;;;5091116;27;45742;-72
2022/08/24 02:52:19;;;;;;;;;5.00;5.00;;;;;;;;5089199;27;45882;-69
2022/08/24 02:54:45;;;;;;;;;4.33;4.33;;;;;;;;5088592;27;45468;-71
2022/08/24 02:57:10;;;;;;;;;5.00;4.00;;;;;;;;5080985;27;45806;-68
2022/08/24 02:59:35;;;;;;;;;6.67;4.00;;;;;;;;5071984;27;45766;-70
2022/08/24 03:02:01;;;;;;;;;6.50;6.50;;;;;;;;5066735;28;45800;-70
2022/08/24 03:04:26;;;;;;;;;4.00;4.00;;;;;;;;5075034;27;46985;-69
2022/08/24 03:06:51;;;;;;;;;6.00;4.33;;;;;;;;5074679;28;45319;-70
2022/08/24 03:09:17;;;;;;;;;3.67;3.67;;;;;;;;5066541;27;45731;-69
2022/08/24 03:11:42;;;;;;;;;5.00;5.00;;;;;;;;5072404;27;45724;-68
2022/08/24 03:14:07;;;;;;;;;4.00;4.00;;;;;;;;5066502;27;45826;-70
2022/08/24 03:16:33;;;;;;;;;3.00;3.00;;;;;;;;5061623;28;45431;-69
2022/08/24 03:18:58;;;;;;;;;6.67;4.67;;;;;;;;5065946;27;45782;-70
2022/08/24 03:21:24;;;;;;;;;8.00;5.00;;;;;;;;5074592;27;46452;-70
2022/08/24 03:23:49;;;;;;;;;4.33;4.33;;;;;;;;5065631;28;47097;-70
2022/08/24 03:26:14;;;;;;;;;3.67;3.67;;;;;;;;5072095;27;45386;-69
2022/08/24 03:28:40;;;;;;;;;6.33;5.33;;;;;;;;5076408;27;45572;-73
2022/08/24 03:31:05;;;;;;;;;6.33;5.00;;;;;;;;5075038;27;45490;-70
2022/08/24 03:33:31;;;;;;;;;6.33;6.33;;;;;;;;5067066;27;45925;-67
2022/08/24 03:35:56;;;;;;;;;6.33;5.00;;;;;;;;5058300;27;46300;-70
2022/08/24 03:38:21;;;;;;;;;5.00;5.00;;;;;;;;5070661;27;45294;-70
2022/08/24 03:40:47;;;;;;;;;6.00;5.00;;;;;;;;5074364;27;45234;-70
2022/08/24 03:43:44;;;;;;;;;5.67;5.67;;;;;;;;5072952;27;46520;-72
2022/08/24 03:46:00;;;;;;;;;6.00;5.00;;;;;;;;5065558;27;45344;-71
2022/08/24 03:48:25;;;;;;;;;6.67;6.67;;;;;;;;5074782;28;45499;-71
2022/08/24 03:50:51;;;;;;;;;6.00;6.00;;;;;;;;5069228;27;45490;-71
2022/08/24 03:53:16;;;;;;;;;6.00;6.00;;;;;;;;5071433;27;46102;-70
2022/08/24 03:55:42;;;;;;;;;6.33;5.33;;;;;;;;5073039;27;45382;-70
2022/08/24 03:58:07;;;;;;;;;5.67;5.00;;;;;;;;5065649;27;45368;-73
2022/08/24 04:00:32;;;;;;;;;5.67;5.67;;;;;;;;5068270;27;45459;-72
2022/08/24 04:02:58;;;;;;;;;5.00;5.00;;;;;;;;5072073;27;47203;-70
2022/08/24 04:05:23;;;;;;;;;5.00;5.00;;;;;;;;5081104;27;45424;-70
2022/08/24 04:07:48;;;;;;;;;6.75;5.75;;;;;;;;5080206;27;45343;-71
2022/08/24 04:10:13;;;;;;;;;7.33;5.33;;;;;;;;5067132;27;45317;-72
2022/08/24 04:12:39;;;;;;;;;5.00;5.00;;;;;;;;5074452;27;45309;-69
2022/08/24 04:15:04;;;;;;;;;7.00;5.67;;;;;;;;5070888;27;45700;-70
2022/08/24 04:17:30;;;;;;;;;3.67;3.67;;;;;;;;5071578;27;45449;-70
2022/08/24 04:19:58;;;;;;;;;14.00;11.67;;;;;;;;5077429;27;45932;-71
2022/08/24 04:22:24;;;;;;;;;6.67;6.67;;;;;;;;5071902;27;46275;-69
2022/08/24 04:24:50;;;;;;;;;5.00;5.00;;;;;;;;5073669;27;45474;-71
2022/08/24 04:27:15;;;;;;;;;5.33;5.33;;;;;;;;5077589;27;45781;-71
2022/08/24 04:29:40;;;;;;;;;7.00;7.00;;;;;;;;5075649;27;45872;-71
2022/08/24 04:32:06;;;;;;;;;7.00;6.00;;;;;;;;5081138;27;45914;-70
2022/08/24 04:34:31;;;;;;;;;7.00;5.67;;;;;;;;5075633;27;45830;-69
2022/08/24 04:36:57;;;;;;;;;7.00;7.00;;;;;;;;5073421;27;45465;-70
2022/08/24 04:39:22;;;;;;;;;6.00;6.00;;;;;;;;5075451;27;45817;-69
2022/08/24 04:41:47;;;;;;;;;6.00;5.33;;;;;;;;5060859;27;45882;-69
2022/08/24 04:44:12;;;;;;;;;6.00;6.00;;;;;;;;5058648;27;45448;-71
2022/08/24 04:46:38;;;;;;;;;8.00;5.00;;;;;;;;5056518;27;45790;-70
2022/08/24 04:49:03;;;;;;;;;7.00;6.00;;;;;;;;5063385;27;45528;-71
2022/08/24 04:51:28;;;;;;;;;8.00;6.00;;;;;;;;5058276;27;45832;-70
2022/08/24 04:53:54;;;;;;;;;7.33;7.33;;;;;;;;5065136;27;45748;-71
2022/08/24 04:56:22;;;;;;;;;7.00;7.00;;;;;;;;5070060;27;45801;-70
2022/08/24 04:58:49;;;;;;;;;4.67;4.67;;;;;;;;5067459;27;45618;-71
2022/08/24 05:01:16;;;;;;;;;4.33;4.33;;;;;;;;5072044;27;45786;-71
2022/08/24 05:03:49;;;;;;;;;9.33;7.33;;;;;;;;5075294;27;45720;-72
2022/08/24 05:06:15;;;;;;;;;7.33;6.00;;;;;;;;5074424;27;45369;-71
2022/08/24 05:08:41;;;;;;;;;6.00;6.00;;;;;;;;5075886;27;45353;-72
2022/08/24 05:11:07;;;;;;;;;4.00;4.00;;;;;;;;5073209;28;47309;-71
2022/08/24 05:13:32;;;;;;;;;8.00;5.67;;;;;;;;5073612;27;45361;-72
2022/08/24 05:15:57;;;;;;;;;5.67;5.67;;;;;;;;5074821;27;45399;-72
2022/08/24 05:18:22;;;;;;;;;7.67;6.00;;;;;;;;5073283;27;46625;-75
2022/08/24 05:20:48;;;;;;;;;5.33;5.00;;;;;;;;5073268;27;45742;-72
2022/08/24 05:23:13;;;;;;;;;14.67;13.33;;;;;;;;5072899;27;45961;-71
2022/08/24 05:25:39;;;;;;;;;7.00;7.00;;;;;;;;5081239;27;45518;-72
2022/08/24 05:28:04;;;;;;;;;17.33;13.67;;;;;;;;5074764;27;45469;-70
2022/08/24 05:30:30;;;;;;;;;10.67;9.33;;;;;;;;5072647;27;45762;-70
2022/08/24 05:32:55;;;;;;;;;7.00;5.67;;;;;;;;5068773;27;45396;-72
2022/08/24 05:35:21;;;;;;;;;7.33;7.00;;;;;;;;5065745;27;45401;-71
2022/08/24 05:37:46;;;;;;;;;8.25;7.00;;;;;;;;5068624;28;45649;-70
2022/08/24 05:40:12;;;;;;;;;9.00;7.00;;;;;;;;5062415;28;46644;-69
2022/08/24 05:42:38;;;;;;;;;7.00;6.00;;;;;;;;5068255;27;45637;-71
2022/08/24 05:45:05;;;;;;;;;8.25;7.00;;;;;;;;5061893;27;45361;-70
2022/08/24 05:47:30;;;;;;;;;7.75;6.75;;;;;;;;5071147;27;45508;-71
2022/08/24 05:49:56;;;;;;;;;10.25;9.25;;;;;;;;5071859;27;48147;-72
2022/08/24 05:52:21;;;;;;;;;8.25;6.00;;;;;;;;5065695;27;45777;-70
2022/08/24 05:54:52;;;;;;;;;4.75;4.25;;;;;;;;5072745;27;45811;-71
2022/08/24 05:57:17;;;;;;;;;8.75;5.00;;;;;;;;5058838;27;45853;-71
2022/08/24 05:59:43;;;;;;;;;7.00;5.00;;;;;;;;5073450;27;46327;-69
2022/08/24 06:02:08;;;;;;;;;5.25;5.25;;;;;;;;5060336;27;45537;-67
2022/08/24 06:04:36;;;;;;;;;5.00;4.25;;;;;;;;5059087;27;45561;-68
2022/08/24 06:07:08;;;;;;;;;5.25;4.00;;;;;;;;5059367;27;46077;-67
2022/08/24 06:09:33;;;;;;;;;5.75;5.00;;;;;;;;5054160;27;45597;-67
2022/08/24 06:11:59;;;;;;;;;8.00;6.00;;;;;;;;5058897;27;45951;-67
2022/08/24 06:14:24;;;;;;;;;4.00;4.00;;;;;;;;5060449;27;45430;-68
2022/08/24 06:16:51;;;;;;;;;4.25;4.00;;;;;;;;5065464;27;45661;-68
2022/08/24 06:19:17;;;;;;;;;4.25;3.50;;;;;;;;5055172;27;45753;-69
2022/08/24 06:21:45;;;;;;;;;5.50;4.00;;;;;;;;5070876;27;45920;-67
2022/08/24 06:24:10;;;;;;;;;5.00;5.00;;;;;;;;5058363;27;45612;-68
2022/08/24 06:29:19;;;;;;;;;7.25;5.00;;;;;;;;5055832;28;45606;-69
2022/08/24 06:31:47;;;;;;;;;7.75;5.50;;;;;;;;5059866;27;45629;-67
2022/08/24 06:34:14;;;;;;;;;5.25;5.25;;;;;;;;5064071;27;45785;-68
2022/08/24 06:36:40;;;;;;;;;9.00;5.50;;;;;;;;5069786;27;45588;-69
2022/08/24 06:39:05;;;;;;;;;3.00;3.00;;;;;;;;5071548;27;45942;-68
2022/08/24 06:41:31;;;;;;;;;3.25;3.25;;;;;;;;5062929;27;45665;-69
2022/08/24 06:43:56;;;;;;;;;5.25;4.25;;;;;;;;5075049;27;45451;-70
2022/08/24 06:46:22;;;;;;;;;5.00;5.00;;;;;;;;5069027;27;45419;-69
2022/08/24 06:48:47;;;;;;;;;4.00;4.00;;;;;;;;5068650;27;45471;-67
2022/08/24 06:51:14;;;;;;;;;3.75;3.00;;;;;;;;5068290;27;45541;-69
2022/08/24 06:53:40;;;;;;;;;7.25;5.00;;;;;;;;5056347;27;45448;-68
2022/08/24 06:56:06;;;;;;;;;5.75;4.00;;;;;;;;5064176;27;45604;-70
2022/08/24 06:58:31;;;;;;;;;5.25;5.25;;;;;;;;5074423;27;45835;-69
2022/08/24 07:00:58;;;;;;;;;7.00;5.25;;;;;;;;5062211;27;45331;-68
2022/08/24 07:03:24;;;;;;;;;7.25;7.00;;;;;;;;5066454;27;45784;-69
2022/08/24 07:05:53;;;;;;;;;5.75;5.75;;;;;;;;5074401;27;45704;-69
2022/08/24 07:08:19;;;;;;;;;6.00;4.25;;;;;;;;5067290;27;46112;-69
2022/08/24 07:10:44;;;;;;;;;7.50;4.50;;;;;;;;5071827;27;45818;-69
2022/08/24 07:13:11;;;;;;;;;5.50;3.75;;;;;;;;5072833;27;45449;-70
2022/08/24 07:15:36;;;;;;;;;7.25;3.75;;;;;;;;5079899;27;45787;-70
2022/08/24 07:18:02;;;;;;;;;5.50;4.50;;;;;;;;5069714;27;46516;-67
2022/08/24 07:20:30;;;;;;;;;5.25;5.25;;;;;;;;5073226;27;45668;-67
2022/08/24 07:22:56;;;;;;;;;7.50;5.50;;;;;;;;5079134;27;45641;-67
2022/08/24 07:25:21;;;;;;;;;5.50;4.00;;;;;;;;5077406;27;45780;-67
2022/08/24 07:27:46;;;;;;;;;6.00;5.25;;;;;;;;5074958;27;47825;-68
2022/08/24 07:30:12;;;;;;;;;7.00;3.25;;;;;;;;5084111;27;45622;-72
2022/08/24 07:32:37;;;;;;;;;6.00;4.00;;;;;;;;5084128;27;45419;-68
2022/08/24 07:35:03;;;;;;;;;3.00;3.00;;;;;;;;5071063;27;45555;-66
2022/08/24 07:37:28;;;;;;;;;4.75;3.00;;;;;;;;5074588;27;45458;-67
2022/08/24 07:39:53;;;;;;;;;5.00;5.00;;;;;;;;5073697;27;45877;-70
2022/08/24 07:42:18;;;;;;;;;4.00;2.75;;;;;;;;5066325;27;45488;-65
2022/08/24 07:44:44;;;;;;;;;4.50;4.00;;;;;;;;5056979;27;45663;-69
2022/08/24 07:47:09;;;;;;;;;5.50;4.25;;;;;;;;5066462;27;45728;-64
2022/08/24 07:49:35;;;;;;;;;4.50;4.50;;;;;;;;5074077;27;45497;-65
2022/08/24 07:52:00;;;;;;;;;4.25;3.75;;;;;;;;5069001;27;45695;-64
2022/08/24 07:54:27;;;;;;;;;4.25;4.25;;;;;;;;5072881;27;45642;-65
2022/08/24 07:57:06;;;;;;;;;;;;;;;;;;;;;
2022/08/24 07:59:35;;;;;;;;;4.50;4.25;;;;;;;;5029777;28;72332;-82
2022/08/24 08:02:07;;;;;;;;;6.00;5.00;;;;;;;;5036202;28;45504;-82
2022/08/24 08:04:40;;;;;;;;;6.25;5.00;;;;;;;;5035457;28;45991;-84
2022/08/24 08:07:06;;;;;;;;;6.33;5.00;;;;;;;;5031305;28;45494;-82
2022/08/24 08:09:35;;;;;;;;;4.75;4.50;;;;;;;;5031411;28;45595;-82
2022/08/24 08:12:00;;;;;;;;;4.50;4.50;;;;;;;;5035180;28;45792;-81
2022/08/24 08:14:26;;;;;;;;;6.00;5.00;;;;;;;;5032355;28;46785;-82
2022/08/24 08:16:55;;;;;;;;;4.00;4.00;;;;;;;;5029638;28;46022;-82
2022/08/24 08:19:21;;;;;;;;;5.00;5.00;;;;;;;;5031564;28;45800;-82
2022/08/24 08:24:36;;;;;;;;;7.25;6.50;;;;;;;;5038789;28;45500;-83
2022/08/24 08:27:02;;;;;;;;;7.25;4.75;;;;;;;;5035999;28;45581;-84
2022/08/24 08:29:30;;;;;;;;;7.00;6.00;;;;;;;;5041144;28;45505;-82
2022/08/24 08:32:02;;;;;;;;;6.00;6.00;;;;;;;;5034232;28;45413;-83
2022/08/24 08:34:33;;;;;;;;;7.00;7.00;;;;;;;;5033733;28;46885;-81
2022/08/24 08:37:02;;;;;;;;;6.00;6.00;;;;;;;;5032756;28;48223;-83
2022/08/24 08:39:30;;;;;;;;;7.00;5.00;;;;;;;;5032236;28;45547;-82
2022/08/24 08:42:55;;;;;;;;;5.00;5.00;;;;;;;;5036548;28;45553;-84
2022/08/24 08:45:42;;;;;;;;;;;;;;;;;;;;;
2022/08/24 08:48:11;;;;;;;;;6.75;5.00;;;;;;;;5021777;28;74518;-82
2022/08/24 08:51:05;;;;;;;;;;;;;;;;;;;;;
2022/08/24 08:54:02;;;;;;;;;5.00;5.00;;;;;;;;5031458;28;67661;-84
2022/08/24 09:00:21;;;;;;;;;5.50;5.50;;;;;;;;5029471;28;45434;-84
2022/08/24 09:03:15;;;;;;;;;;;;;;;;;;;;;
2022/08/24 09:06:11;;;;;;;;;5.75;5.75;;;;;;;;5033165;28;69551;-84
2022/08/24 09:08:59;;;;;;;;;5.50;5.00;;;;;;;;5050284;28;45995;-83
2022/08/24 09:11:52;;;;;;;;;6.00;5.00;;;;;;;;5036090;28;46359;-85
2022/08/24 09:14:33;;;;;;;;;5.25;4.25;;;;;;;;5032669;28;45447;-86
2022/08/24 09:17:30;;;;;;;;;4.50;4.50;;;;;;;;5035765;28;45734;-83
2022/08/24 09:20:29;;;;;;;;;5.25;5.25;;;;;;;;5035499;28;45934;-86
2022/08/24 09:23:13;;;;;;;;;5.75;4.50;;;;;;;;5013475;28;45460;-86
2022/08/24 09:26:24;;;;;;;;;;;;;;;;;;;;;
2022/08/24 09:30:04;;;;;;;;;;;;;;;;;;;;;
2022/08/24 09:38:37;;;;;;;;;0.00;0.00;;;;;;;;5013021;28;45911;-82
2022/08/24 09:41:14;;;;;;;;;2.00;2.00;;;;;;;;5032020;28;45841;-84
2022/08/24 09:47:14;;;;;;;;;1.00;1.00;;;;;;;;5014721;28;45589;-87
2022/08/24 09:50:20;;;;;;;;;;;;;;;;;;;;;
2022/08/24 09:56:31;;;;;;;;;3.67;1.33;;;;;;;;5035300;28;45281;-83
2022/08/24 09:59:36;;;;;;;;;1.75;1.00;;;;;;;;4990964;28;46557;-84
2022/08/24 10:05:33;;;;;;;;;;;;;;;;;;;;;
2022/08/24 10:11:48;;;;;;;;;;;;;;;;;;;;;
2022/08/24 10:14:36;;;;;;;;;1.00;1.00;;;;;;;;5004221;28;74040;-83
2022/08/24 10:17:35;;;;;;;;;1.00;1.00;;;;;;;;5020851;28;45954;-84
2022/08/24 10:23:46;;;;;;;;;2.00;0.67;;;;;;;;4970121;28;46030;-81
2022/08/24 10:29:59;;;;;;;;;1.33;1.33;;;;;;;;5000163;28;45828;-88
2022/08/24 10:32:42;;;;;;;;;0.75;0.75;;;;;;;;4991447;28;46009;-83
2022/08/24 10:35:40;;;;;;;;;0.00;0.00;;;;;;;;4976226;28;45728;-86
2022/08/24 10:41:01;;;;;;;;;1.25;0.25;;;;;;;;5000877;28;45913;-85
2022/08/24 10:43:37;;;;;;;;;1.00;1.00;;;;;;;;5017139;28;45620;-85
2022/08/24 10:46:17;;;;;;;;;1.00;1.00;;;;;;;;5016736;28;45597;-89
2022/08/24 10:48:43;;;;;;;;;0.00;0.00;;;;;;;;5013149;28;45864;-85
2022/08/24 10:51:35;;;;;;;;;1.00;1.00;;;;;;;;5020798;28;45506;-85
2022/08/24 10:54:03;;;;;;;;;0.00;0.00;;;;;;;;5017187;28;45958;-84
2022/08/24 10:57:03;;;;;;;;;2.00;2.00;;;;;;;;5015360;28;48050;-82
2022/08/24 11:00:11;;;;;;;;;0.00;0.00;;;;;;;;4987294;28;45665;-85
2022/08/24 11:02:40;;;;;;;;;0.75;0.75;;;;;;;;4992677;28;45437;-86
2022/08/24 11:05:13;;;;;;;;;2.00;1.00;;;;;;;;5010916;28;45618;-83
2022/08/24 11:08:03;;;;;;;;;1.50;1.00;;;;;;;;5009396;28;46160;-86
2022/08/24 11:10:34;;;;;;;;;2.00;0.75;;;;;;;;5018403;28;45856;-88
2022/08/24 11:13:19;;;;;;;;;1.25;1.25;;;;;;;;5022334;28;45551;-90
2022/08/24 11:16:20;;;;;;;;;;;;;;;;;;;;;
2022/08/24 11:22:03;;;;;;;;;1.00;1.00;;;;;;;;5021105;28;45399;-84
2022/08/24 11:24:40;;;;;;;;;1.00;1.00;;;;;;;;5005623;28;45803;-86
2022/08/24 11:27:28;;;;;;;;;1.00;1.00;;;;;;;;5014821;28;45709;-85
2022/08/24 11:30:06;;;;;;;;;;;;;;;;;;;;;
2022/08/24 11:32:50;;;;;;;;;1.00;1.00;;;;;;;;5020646;28;71942;-85
2022/08/24 11:35:29;;;;;;;;;2.00;2.00;;;;;;;;5015327;28;45522;-86
2022/08/24 11:38:01;;;;;;;;;1.00;1.00;;;;;;;;5021008;28;46143;-85
2022/08/24 11:40:47;;;;;;;;;1.75;1.75;;;;;;;;5025556;28;46217;-85
2022/08/24 11:43:40;;;;;;;;;1.50;1.50;;;;;;;;5016583;28;45503;-87
2022/08/24 11:46:17;;;;;;;;;1.25;1.25;;;;;;;;5009677;28;45544;-86
2022/08/24 11:48:46;;;;;;;;;1.75;1.75;;;;;;;;5020725;28;45490;-80
2022/08/24 11:54:35;;;;;;;;;1.00;1.00;;;;;;;;5016400;28;45529;-85
2022/08/24 11:57:01;;;;;;;;;2.00;2.00;;;;;;;;5017305;28;45535;-80
2022/08/24 12:03:07;;;;;;;;;1.25;1.00;;;;;;;;5006191;28;45680;-85
2022/08/24 12:06:13;;;;;;;;;2.50;2.00;;;;;;;;5042687;28;45495;-85
2022/08/24 12:08:53;;;;;;;;;;;;;;;;;;;;;
2022/08/24 12:15:14;;;;;;;;;1.50;1.50;;;;;;;;4950661;28;45519;-86
2022/08/24 12:33:50;;;;;;;;;1.00;1.00;;;;;;;;4814818;29;45539;-86
2022/08/24 12:39:59;;;;;;;;;1.25;1.25;;;;;;;;4781344;29;45572;-86
2022/08/24 12:42:46;;;;;;;;;2.00;2.00;;;;;;;;4729360;29;45582;-86
2022/08/24 13:14:08;;;;;;;;;1.00;1.00;;;;;;;;4874385;29;45719;-84
2022/08/24 13:32:45;;;;;;;;;0.00;0.00;;;;;;;;4826548;29;46271;-85
2022/08/24 13:35:22;;;;;;;;;0.25;0.25;;;;;;;;4801052;29;44960;-83
2022/08/24 13:38:26;;;;;;;;;2.00;2.00;;;;;;;;4852887;29;45922;-86
2022/08/24 13:47:33;;;;;;;;;0.00;0.00;;;;;;;;4894539;28;45536;-83
2022/08/24 14:19:02;;;;;;;;;;;;;;;;;;;;;
2022/08/24 14:24:52;;;;;;;;;1.00;1.00;;;;;;;;4981576;28;45955;-84
2022/08/24 14:30:51;;;;;;;;;;;;;;;;;;;;;
2022/08/24 14:44:23;;;;;;;;;;;;;;;;;;;;;
2022/08/24 14:59:15;;;;;;;;;0.00;0.00;;;;;;;;4846749;29;44860;-88
2022/08/24 15:05:18;;;;;;;;;1.25;0.50;;;;;;;;4811641;29;46070;-88
2022/08/24 15:14:41;;;;;;;;;1.00;1.00;;;;;;;;4746431;29;45526;-88
2022/08/24 15:24:15;;;;;;;;;0.75;0.75;;;;;;;;4771371;29;45180;-91
2022/08/24 15:27:06;;;;;;;;;3.00;1.75;;;;;;;;4764737;29;44928;-90
2022/08/24 15:29:53;;;;;;;;;1.00;1.00;;;;;;;;4737071;29;45443;-88
2022/08/24 15:32:20;;;;;;;;;0.00;0.00;;;;;;;;4754188;29;46352;-78
2022/08/24 15:34:54;;;;;;;;;0.00;0.00;;;;;;;;4820186;28;45664;-86
2022/08/24 15:38:12;;;;;;;;;1.00;1.00;;;;;;;;4954188;28;45614;-86
2022/08/24 16:10:12;;;;;;;;;;;;;;;;;;;;;
2022/08/24 16:12:34;;;;;;;;;0.25;0.25;;;;;;;;4867950;28;45913;-88
2022/08/24 16:21:48;;;;;;;;;;;;;;;;;;;;;
2022/08/24 16:27:17;;;;;;;;;0.25;0.25;;;;;;;;4800051;29;45952;-83
2022/08/24 16:29:44;;;;;;;;;0.75;0.75;;;;;;;;4843039;28;45524;-84
2022/08/24 16:35:31;;;;;;;;;1.00;1.00;;;;;;;;4898225;28;45933;-85
2022/08/24 16:38:02;;;;;;;;;0.00;0.00;;;;;;;;4952954;28;45561;-84
2022/08/24 16:40:57;;;;;;;;;0.75;0.00;;;;;;;;4996337;28;45542;-88
2022/08/24 16:43:34;;;;;;;;;0.50;0.50;;;;;;;;5002026;28;45781;-90
2022/08/24 16:49:24;;;;;;;;;1.50;1.00;;;;;;;;4971789;28;45687;-88
2022/08/24 16:52:26;;;;;;;;;;;;;;;;;;;;;
2022/08/24 16:55:01;;;;;;;;;1.00;1.00;;;;;;;;4958126;28;74293;-85
2022/08/24 16:57:35;;;;;;;;;1.00;1.00;;;;;;;;5007326;28;45815;-85
2022/08/24 17:19:40;;;;;;;;;2.00;2.00;;;;;;;;4911753;28;45522;-86
2022/08/24 17:38:51;;;;;;;;;;;;;;;;;;;;;
2022/08/24 17:41:25;;;;;;;;;2.75;2.75;;;;;;;;4842294;29;45562;-85
2022/08/24 17:44:32;;;;;;;;;3.75;3.00;;;;;;;;4961952;28;45942;-86
2022/08/24 17:47:42;;;;;;;;;4.00;2.00;;;;;;;;4943402;28;45615;-86
2022/08/24 17:50:08;;;;;;;;;2.00;2.00;;;;;;;;5000203;28;45737;-84
2022/08/24 18:02:43;;;;;;;;;;;;;;;;;;;;;
2022/08/24 18:12:03;;;;;;;;;5.75;4.00;;;;;;;;4849975;29;45640;-90
2022/08/24 18:18:05;;;;;;;;;2.75;2.75;;;;;;;;4865029;29;45475;-85
2022/08/24 18:30:39;;;;;;;;;;;;;;;;;;;;;
2022/08/24 18:36:22;;;;;;;;;6.50;5.00;;;;;;;;4750509;29;45526;-86
2022/08/24 18:39:00;;;;;;;;;4.50;4.50;;;;;;;;4776827;29;45772;-84
2022/08/24 18:42:13;;;;;;;;;5.50;3.00;;;;;;;;4810448;29;45538;-85
2022/08/24 18:45:00;;;;;;;;;5.75;3.25;;;;;;;;4859732;29;45637;-84
2022/08/24 18:48:01;;;;;;;;;4.75;4.75;;;;;;;;4876806;29;45539;-84
2022/08/24 18:50:46;;;;;;;;;4.75;4.75;;;;;;;;4858710;29;45535;-88
2022/08/24 19:00:08;;;;;;;;;;;;;;;;;;;;;
2022/08/24 19:02:55;;;;;;;;;5.25;5.25;;;;;;;;4815488;29;67308;-83
2022/08/24 19:05:22;;;;;;;;;8.00;6.75;;;;;;;;4818475;29;45291;-80
2022/08/24 19:07:50;;;;;;;;;5.33;5.33;;;;;;;;4896681;28;46873;-82
2022/08/24 19:10:17;;;;;;;;;6.00;5.67;;;;;;;;4978187;28;45466;-83
2022/08/24 19:13:19;;;;;;;;;;;;;;;;;;;;;
2022/08/24 19:16:18;;;;;;;;;8.00;8.00;;;;;;;;5018535;28;72924;-83
2022/08/24 19:18:55;;;;;;;;;6.00;5.50;;;;;;;;5034930;28;45567;-84
2022/08/24 19:21:24;;;;;;;;;4.50;4.50;;;;;;;;5052258;28;45442;-84
2022/08/24 19:24:05;;;;;;;;;7.00;7.00;;;;;;;;5053037;28;45851;-83
2022/08/24 19:26:33;;;;;;;;;10.33;8.00;;;;;;;;5042842;28;45819;-83
2022/08/24 19:32:22;;;;;;;;;6.75;5.50;;;;;;;;5040343;28;45799;-84
2022/08/24 19:34:53;;;;;;;;;5.50;5.50;;;;;;;;5047867;28;45460;-85
2022/08/24 19:37:24;;;;;;;;;8.00;7.25;;;;;;;;5034210;28;46061;-84
2022/08/24 19:39:56;;;;;;;;;9.00;8.25;;;;;;;;5050204;28;45584;-83
2022/08/24 19:42:32;;;;;;;;;8.00;8.00;;;;;;;;5051109;28;45815;-84
2022/08/24 19:47:56;;;;;;;;;9.00;5.00;;;;;;;;5045719;28;45446;-85
2022/08/24 19:50:25;;;;;;;;;9.00;9.00;;;;;;;;5050583;28;45473;-84
2022/08/24 19:53:00;;;;;;;;;9.75;6.00;;;;;;;;5036695;28;45704;-85
2022/08/24 19:55:33;;;;;;;;;12.33;9.00;;;;;;;;5057679;28;45369;-86
2022/08/24 19:58:09;;;;;;;;;35.67;29.33;;;;;;;;5036116;28;45828;-83
2022/08/24 20:00:40;;;;;;;;;13.67;11.33;;;;;;;;5066327;28;45615;-84
2022/08/24 20:03:07;;;;;;;;;12.33;10.00;;;;;;;;5059779;28;45251;-86
2022/08/24 20:05:41;;;;;;;;;9.50;9.00;;;;;;;;5055349;28;44836;-90
2022/08/24 20:08:13;;;;;;;;;12.33;10.00;;;;;;;;5047245;28;45490;-84
2022/08/24 20:11:07;;;;;;;;;10.67;10.67;;;;;;;;5039074;28;47560;-83
2022/08/24 20:16:41;;;;;;;;;11.00;10.00;;;;;;;;5042690;28;45774;-82
2022/08/24 20:19:08;;;;;;;;;10.33;8.67;;;;;;;;5038985;28;45017;-84
2022/08/24 20:21:36;;;;;;;;;12.33;10.00;;;;;;;;5039012;28;47309;-82
2022/08/24 20:24:05;;;;;;;;;13.33;13.33;;;;;;;;5023848;28;45506;-83
2022/08/24 20:26:35;;;;;;;;;13.00;12.00;;;;;;;;5036567;28;45464;-84
2022/08/24 20:29:07;;;;;;;;;13.33;12.67;;;;;;;;5037916;28;46084;-83
2022/08/24 20:31:36;;;;;;;;;18.00;14.33;;;;;;;;5024959;28;47408;-84
2022/08/24 20:34:02;;;;;;;;;22.00;13.67;;;;;;;;5055765;28;45504;-85